createdAt,value
2023-02-15T00:00:07.338Z,8.50
2023-02-15T00:02:40.332Z,8.00
2023-02-15T00:05:12.888Z,9.23
2023-02-15T00:07:45.398Z,8.90
2023-02-15T00:10:18.236Z,8.40
2023-02-15T00:12:50.733Z,8.65
2023-02-15T00:15:23.275Z,7.88
2023-02-15T00:17:55.833Z,8.02
2023-02-15T00:20:28.272Z,8.10
2023-02-15T00:23:00.816Z,8.05
2023-02-15T00:25:33.249Z,7.50
2023-02-15T00:28:05.706Z,8.07
2023-02-15T00:30:38.280Z,7.38
2023-02-15T00:33:10.793Z,7.63
2023-02-15T00:35:43.297Z,7.40
2023-02-15T00:38:15.810Z,7.65
2023-02-15T00:40:54.715Z,7.25
2023-02-15T00:43:29.534Z,6.82
2023-02-15T00:46:04.813Z,7.43
2023-02-15T00:48:37.425Z,7.20
2023-02-15T00:51:09.898Z,7.30
2023-02-15T00:53:42.428Z,6.85
2023-02-15T00:56:15.259Z,7.85
2023-02-15T00:58:48.199Z,6.93
2023-02-15T01:01:22.155Z,6.65
2023-02-15T01:03:54.792Z,7.07
2023-02-15T01:06:27.306Z,7.32
2023-02-15T01:08:59.769Z,8.05
2023-02-15T01:11:32.388Z,7.65
2023-02-15T01:14:06.335Z,7.00
2023-02-15T01:16:38.902Z,7.05
2023-02-15T01:19:11.402Z,6.75
2023-02-15T01:21:43.913Z,6.85
2023-02-15T01:24:16.431Z,6.95
2023-02-15T01:26:48.977Z,7.30
2023-02-15T01:29:21.575Z,7.10
2023-02-15T01:31:54.135Z,6.80
2023-02-15T01:34:26.730Z,6.65
2023-02-15T01:36:59.226Z,6.75
2023-02-15T01:39:31.718Z,6.95
2023-02-15T01:42:04.339Z,7.18
2023-02-15T01:44:59.656Z,6.10
2023-02-15T01:47:55.456Z,6.78
2023-02-15T01:50:39.278Z,6.50
2023-02-15T01:53:31.246Z,6.60
2023-02-15T01:56:15.130Z,6.53
2023-02-15T01:58:48.560Z,6.78
2023-02-15T02:01:21.357Z,6.30
2023-02-15T02:04:15.833Z,6.03
2023-02-15T02:06:50.951Z,6.05
2023-02-15T02:09:23.492Z,6.57
2023-02-15T02:11:56.197Z,5.97
2023-02-15T02:14:29.558Z,5.72
2023-02-15T02:17:27.476Z,6.13
2023-02-15T02:21:09.584Z,5.90
2023-02-15T02:24:12.287Z,5.50
2023-02-15T02:27:42.313Z,5.63
2023-02-15T02:30:36.019Z,5.45
2023-02-15T02:33:43.370Z,6.20
2023-02-15T02:37:04.373Z,6.00
2023-02-15T02:40:11.753Z,6.15
2023-02-15T02:42:55.845Z,6.18
2023-02-15T02:45:44.334Z,5.60
2023-02-15T02:48:23.725Z,5.28
2023-02-15T02:50:56.219Z,5.78
2023-02-15T02:53:32.314Z,5.72
2023-02-15T02:56:25.571Z,5.70
2023-02-15T02:59:08.930Z,5.25
2023-02-15T03:01:59.026Z,5.30
2023-02-15T03:04:38.991Z,5.28
2023-02-15T03:07:22.859Z,5.53
2023-02-15T03:09:59.702Z,4.80
2023-02-15T03:12:37.155Z,5.55
2023-02-15T03:15:21.539Z,5.30
2023-02-15T03:18:03.781Z,5.05
2023-02-15T03:20:39.004Z,5.05
2023-02-15T03:23:21.876Z,5.25
2023-02-15T03:26:02.742Z,5.07
2023-02-15T03:28:47.129Z,5.40
2023-02-15T03:31:24.520Z,4.85
2023-02-15T03:34:08.043Z,5.47
2023-02-15T03:36:51.436Z,4.88
2023-02-15T03:39:36.815Z,5.30
2023-02-15T03:42:17.390Z,4.65
2023-02-15T03:45:03.240Z,5.05
2023-02-15T03:47:45.670Z,4.78
2023-02-15T03:50:47.135Z,4.65
2023-02-15T03:53:24.396Z,5.25
2023-02-15T03:55:56.935Z,4.88
2023-02-15T03:58:48.069Z,4.70
2023-02-15T04:01:55.110Z,4.75
2023-02-15T04:04:46.179Z,4.80
2023-02-15T04:07:18.868Z,4.85
2023-02-15T04:10:10.180Z,4.40
2023-02-15T04:12:42.628Z,4.95
2023-02-15T04:15:33.530Z,4.45
2023-02-15T04:18:06.511Z,4.35
2023-02-15T04:20:57.484Z,4.85
2023-02-15T04:23:48.746Z,4.75
2023-02-15T04:26:21.191Z,4.25
2023-02-15T04:28:53.638Z,4.68
2023-02-15T04:31:26.191Z,4.20
2023-02-15T04:33:58.770Z,4.30
2023-02-15T04:36:31.276Z,4.28
2023-02-15T04:39:04.043Z,4.07
2023-02-15T04:41:36.762Z,4.22
2023-02-15T04:44:09.481Z,4.03
2023-02-15T04:46:41.962Z,4.25
2023-02-15T04:49:14.452Z,4.20
2023-02-15T04:51:46.930Z,4.38
2023-02-15T04:54:19.434Z,4.20
2023-02-15T04:56:51.898Z,4.00
2023-02-15T04:59:24.366Z,4.38
2023-02-15T05:01:56.883Z,3.80
2023-02-15T05:04:29.413Z,4.18
2023-02-15T05:07:02.097Z,3.88
2023-02-15T05:09:34.606Z,4.03
2023-02-15T05:12:07.476Z,4.25
2023-02-15T05:14:39.999Z,4.28
2023-02-15T05:17:12.555Z,3.80
2023-02-15T05:19:45.054Z,3.80
2023-02-15T05:22:17.569Z,3.80
2023-02-15T05:25:08.504Z,3.78
2023-02-15T05:27:59.758Z,3.85
2023-02-15T05:30:32.768Z,3.80
2023-02-15T05:33:05.320Z,3.70
2023-02-15T05:35:37.829Z,4.25
2023-02-15T05:38:10.444Z,3.95
2023-02-15T05:40:43.093Z,3.60
2023-02-15T05:43:15.602Z,3.90
2023-02-15T05:45:50.892Z,3.72
2023-02-15T05:48:26.807Z,4.03
2023-02-15T05:51:06.798Z,3.88
2023-02-15T05:53:40.775Z,4.18
2023-02-15T05:56:13.356Z,3.78
2023-02-15T05:58:45.813Z,4.05
2023-02-15T06:01:22.011Z,3.90
2023-02-15T06:03:55.223Z,3.80
2023-02-15T06:06:27.766Z,4.13
2023-02-15T06:09:00.261Z,3.83
2023-02-15T06:11:32.767Z,3.72
2023-02-15T06:14:05.270Z,3.78
2023-02-15T06:16:37.980Z,3.75
2023-02-15T06:19:10.500Z,3.17
2023-02-15T06:21:43.251Z,3.58
2023-02-15T06:24:16.404Z,3.97
2023-02-15T06:26:48.862Z,3.75
2023-02-15T06:29:21.376Z,3.67
2023-02-15T06:31:54.016Z,3.47
2023-02-15T06:34:26.513Z,3.55
2023-02-15T06:36:59.022Z,3.08
2023-02-15T06:39:32.490Z,3.38
2023-02-15T06:42:04.955Z,3.60
2023-02-15T06:44:37.398Z,3.15
2023-02-15T06:47:09.922Z,3.03
2023-02-15T06:49:42.579Z,3.33
2023-02-15T06:52:15.086Z,3.08
2023-02-15T06:54:47.536Z,3.25
2023-02-15T06:57:20.015Z,3.15
2023-02-15T06:59:53.772Z,3.40
2023-02-15T07:02:26.576Z,3.30
2023-02-15T07:04:59.091Z,3.20
2023-02-15T07:07:31.652Z,3.10
2023-02-15T07:10:04.710Z,3.28
2023-02-15T07:12:43.258Z,2.92
2023-02-15T07:15:21.621Z,3.38
2023-02-15T07:17:54.154Z,3.20
2023-02-15T07:20:26.662Z,3.45
2023-02-15T07:22:59.093Z,2.85
2023-02-15T07:25:32.204Z,3.20
2023-02-15T07:28:05.448Z,3.38
2023-02-15T07:30:37.900Z,3.40
2023-02-15T07:33:25.326Z,3.22
2023-02-15T07:36:02.981Z,3.50
2023-02-15T07:38:38.867Z,3.30
2023-02-15T07:41:15.334Z,3.47
2023-02-15T07:43:47.790Z,3.10
2023-02-15T07:46:21.806Z,3.40
2023-02-15T07:48:54.879Z,3.40
2023-02-15T07:51:27.384Z,3.33
2023-02-15T07:53:59.899Z,3.35
2023-02-15T07:56:34.345Z,3.20
2023-02-15T07:59:09.063Z,3.40
2023-02-15T08:01:41.505Z,3.75
2023-02-15T08:04:14.230Z,3.10
2023-02-15T08:06:46.728Z,3.53
2023-02-15T08:09:19.286Z,3.65
2023-02-15T08:11:51.761Z,3.58
2023-02-15T08:14:24.329Z,2.95
2023-02-15T08:17:03.626Z,3.70
2023-02-15T08:19:36.630Z,3.28
2023-02-15T08:22:13.567Z,3.22
2023-02-15T08:24:46.033Z,3.45
2023-02-15T08:27:18.529Z,3.50
2023-02-15T08:29:51.011Z,3.10
2023-02-15T08:32:23.531Z,3.20
2023-02-15T08:34:56.079Z,3.03
2023-02-15T08:37:28.531Z,3.22
2023-02-15T08:40:01.067Z,3.08
2023-02-15T08:42:35.038Z,3.00
2023-02-15T08:45:08.214Z,3.28
2023-02-15T08:47:40.666Z,3.13
2023-02-15T08:50:13.557Z,3.13
2023-02-15T08:52:46.103Z,3.58
2023-02-15T08:55:18.586Z,3.53
2023-02-15T08:57:51.076Z,3.42
2023-02-15T09:00:23.898Z,3.50
2023-02-15T09:02:56.435Z,3.42
2023-02-15T09:05:28.929Z,3.42
2023-02-15T09:08:01.425Z,3.33
2023-02-15T09:10:33.922Z,3.47
2023-02-15T09:13:06.470Z,3.28
2023-02-15T09:15:38.922Z,3.95
2023-02-15T09:18:13.155Z,3.38
2023-02-15T09:20:45.867Z,3.67
2023-02-15T09:23:26.802Z,3.45
2023-02-15T09:26:04.386Z,3.42
2023-02-15T09:28:36.918Z,3.88
2023-02-15T09:31:16.064Z,4.13
2023-02-15T09:33:49.907Z,4.05
2023-02-15T09:36:28.727Z,3.88
2023-02-15T09:39:13.650Z,4.07
2023-02-15T09:42:37.873Z,3.58
2023-02-15T09:45:57.539Z,4.13
2023-02-15T09:48:41.704Z,3.97
2023-02-15T09:51:33.310Z,3.95
2023-02-15T09:54:39.814Z,4.10
2023-02-15T09:58:12.714Z,4.88
2023-02-15T10:01:22.061Z,4.07
2023-02-15T10:04:22.033Z,4.00
2023-02-15T10:07:22.145Z,3.78
2023-02-15T10:10:58.026Z,3.80
2023-02-15T10:14:01.692Z,3.97
2023-02-15T10:17:09.945Z,3.92
2023-02-15T10:20:05.693Z,3.78
2023-02-15T10:23:10.411Z,3.40
2023-02-15T10:26:05.333Z,3.65
2023-02-15T10:28:50.587Z,3.67
2023-02-15T10:32:05.770Z,3.47
2023-02-15T10:34:59.196Z,3.55
2023-02-15T10:38:00.316Z,3.50
2023-02-15T10:41:04.364Z,4.00
2023-02-15T10:44:34.162Z,3.75
2023-02-15T10:47:56.687Z,4.00
2023-02-15T10:50:52.739Z,3.60
2023-02-15T10:54:01.104Z,3.92
2023-02-15T10:57:00.810Z,4.03
2023-02-15T11:00:01.377Z,3.85
2023-02-15T11:03:01.243Z,3.55
2023-02-15T11:05:40.906Z,3.60
2023-02-15T11:08:13.920Z,3.45
2023-02-15T11:11:03.965Z,3.78
2023-02-15T11:13:47.324Z,3.47
2023-02-15T11:16:33.589Z,3.50
2023-02-15T11:19:52.969Z,3.30
2023-02-15T11:22:26.329Z,3.45
2023-02-15T11:25:01.968Z,3.60
2023-02-15T11:27:35.376Z,3.55
2023-02-15T11:30:45.663Z,3.53
2023-02-15T11:33:30.843Z,3.58
2023-02-15T11:36:22.346Z,3.72
2023-02-15T11:39:05.919Z,3.22
2023-02-15T11:41:47.638Z,3.60
2023-02-15T11:44:38.212Z,4.03
2023-02-15T11:47:16.843Z,3.70
2023-02-15T11:49:49.480Z,3.70
2023-02-15T11:52:22.078Z,3.20
2023-02-15T11:54:54.972Z,3.58
2023-02-15T11:57:42.318Z,3.78
2023-02-15T12:00:26.519Z,3.70
2023-02-15T12:02:59.864Z,3.40
2023-02-15T12:05:33.138Z,3.75
2023-02-15T12:08:17.445Z,3.88
2023-02-15T12:11:08.207Z,3.58
2023-02-15T12:14:10.915Z,3.58
2023-02-15T12:16:48.233Z,3.63
2023-02-15T12:19:37.389Z,3.50
2023-02-15T12:22:26.145Z,3.45
2023-02-15T12:25:21.819Z,3.58
2023-02-15T12:27:54.771Z,3.33
2023-02-15T12:30:37.726Z,3.70
2023-02-15T12:33:46.476Z,3.80
2023-02-15T12:36:28.894Z,3.83
2023-02-15T12:39:13.357Z,3.10
2023-02-15T12:44:37.896Z,3.13
2023-02-15T12:47:16.149Z,3.17
2023-02-15T12:50:23.027Z,3.50
2023-02-15T12:53:13.692Z,3.25
2023-02-15T12:55:59.373Z,3.17
2023-02-15T12:58:35.269Z,3.13
2023-02-15T13:01:22.823Z,3.30
2023-02-15T13:03:57.113Z,3.33
2023-02-15T13:06:36.367Z,3.83
2023-02-15T13:09:32.122Z,3.53
2023-02-15T13:12:27.381Z,3.60
2023-02-15T13:15:02.558Z,3.70
2023-02-15T13:17:35.643Z,3.85
2023-02-15T13:20:20.549Z,3.75
2023-02-15T13:23:00.654Z,3.15
2023-02-15T13:25:51.099Z,3.83
2023-02-15T13:28:37.236Z,3.65
2023-02-15T13:31:18.298Z,3.50
2023-02-15T13:34:03.426Z,3.33
2023-02-15T13:36:53.700Z,3.67
2023-02-15T13:39:45.196Z,3.72
2023-02-15T13:42:32.078Z,3.75
2023-02-15T13:45:57.593Z,3.45
2023-02-15T13:48:51.258Z,3.33
2023-02-15T13:51:55.786Z,4.30
2023-02-15T13:55:00.133Z,3.72
2023-02-15T13:58:02.324Z,3.40
2023-02-15T14:01:16.782Z,3.97
2023-02-15T14:04:22.379Z,4.03
2023-02-15T14:07:46.690Z,3.75
2023-02-15T14:10:35.725Z,3.95
2023-02-15T14:13:57.195Z,4.25
2023-02-15T14:17:21.537Z,3.80
2023-02-15T14:20:06.668Z,3.83
2023-02-15T14:22:53.968Z,3.80
2023-02-15T14:25:36.124Z,3.63
2023-02-15T14:28:28.966Z,3.55
2023-02-15T14:31:06.223Z,3.78
2023-02-15T14:33:43.697Z,3.75
2023-02-15T14:36:20.932Z,3.38
2023-02-15T14:39:06.550Z,3.58
2023-02-15T14:41:59.595Z,3.70
2023-02-15T14:44:54.827Z,3.70
2023-02-15T14:47:40.802Z,3.70
2023-02-15T14:50:40.346Z,3.30
2023-02-15T14:53:28.641Z,3.83
2023-02-15T14:56:08.950Z,3.72
2023-02-15T14:58:50.461Z,3.40
2023-02-15T15:01:37.046Z,4.00
2023-02-15T15:04:23.626Z,3.75
2023-02-15T15:07:20.702Z,3.60
2023-02-15T15:10:21.599Z,3.97
2023-02-15T15:12:57.516Z,3.50
2023-02-15T15:15:32.934Z,3.78
2023-02-15T15:18:10.517Z,4.18
2023-02-15T15:20:52.132Z,4.07
2023-02-15T15:23:42.692Z,4.15
2023-02-15T15:26:24.973Z,4.07
2023-02-15T15:29:01.423Z,3.80
2023-02-15T15:31:54.407Z,4.10
2023-02-15T15:35:17.450Z,4.05
2023-02-15T15:38:15.930Z,3.90
2023-02-15T15:41:02.344Z,3.95
2023-02-15T15:47:32.881Z,3.28
2023-02-15T15:50:15.720Z,2.90
2023-02-15T15:52:55.396Z,3.15
2023-02-15T15:55:33.027Z,2.83
2023-02-15T15:58:09.167Z,2.80
2023-02-15T16:00:54.881Z,3.45
2023-02-15T16:03:30.056Z,3.70
2023-02-15T16:06:26.484Z,3.22
2023-02-15T16:09:25.617Z,3.40
2023-02-15T16:12:02.629Z,3.33
2023-02-15T16:14:41.813Z,3.08
2023-02-15T16:17:25.028Z,3.80
2023-02-15T16:20:19.597Z,3.10
2023-02-15T16:23:30.229Z,3.67
2023-02-15T16:26:33.765Z,3.22
2023-02-15T16:29:28.997Z,3.30
2023-02-15T16:32:07.036Z,3.05
2023-02-15T16:34:39.842Z,2.70
2023-02-15T16:37:27.081Z,3.40
2023-02-15T16:39:59.964Z,2.97
2023-02-15T16:42:32.898Z,3.25
2023-02-15T16:45:18.763Z,3.40
2023-02-15T16:48:12.101Z,3.33
2023-02-15T16:50:55.830Z,3.47
2023-02-15T16:53:29.991Z,3.53
2023-02-15T16:58:47.102Z,3.35
2023-02-15T17:01:24.999Z,3.47
2023-02-15T17:04:22.307Z,3.42
2023-02-15T17:07:14.884Z,2.95
2023-02-15T17:10:44.263Z,3.53
2023-02-15T17:13:28.687Z,3.10
2023-02-15T17:18:45.627Z,3.30
2023-02-15T17:27:58.782Z,3.47
2023-02-15T17:30:38.837Z,3.22
2023-02-15T17:33:22.701Z,2.97
2023-02-15T17:36:07.193Z,3.40
2023-02-15T17:41:35.422Z,3.20
2023-02-15T17:44:14.900Z,3.70
2023-02-15T17:46:47.644Z,3.25
2023-02-15T17:49:29.458Z,3.25
2023-02-15T17:52:02.789Z,3.15
2023-02-15T17:55:06.093Z,3.50
2023-02-15T17:57:51.145Z,3.28
2023-02-15T18:00:51.476Z,3.55
2023-02-15T18:03:46.348Z,3.35
2023-02-15T18:09:34.861Z,3.50
2023-02-15T18:12:28.686Z,3.15
2023-02-15T18:15:01.734Z,4.07
2023-02-15T18:17:44.936Z,3.63
2023-02-15T18:20:28.174Z,4.00
2023-02-15T18:23:02.287Z,3.70
2023-02-15T18:28:37.286Z,3.53
2023-02-15T18:31:24.028Z,3.72
2023-02-15T18:34:00.652Z,4.07
2023-02-15T18:37:10.700Z,3.53
2023-02-15T18:40:19.310Z,3.25
2023-02-15T18:42:52.231Z,3.80
2023-02-15T18:45:33.219Z,3.78
2023-02-15T18:48:24.144Z,3.75
2023-02-15T18:51:21.931Z,3.47
2023-02-15T18:53:54.804Z,3.58
2023-02-15T18:56:27.862Z,3.50
2023-02-15T18:59:22.706Z,3.25
2023-02-15T19:02:02.923Z,3.38
2023-02-15T19:04:46.700Z,3.60
2023-02-15T19:07:39.227Z,3.30
2023-02-15T19:10:21.819Z,3.85
2023-02-15T19:13:05.290Z,3.50
2023-02-15T19:15:38.437Z,3.78
2023-02-15T19:18:26.455Z,4.40
2023-02-15T19:20:59.137Z,3.58
2023-02-15T19:23:36.122Z,3.65
2023-02-15T19:26:11.116Z,3.33
2023-02-15T19:28:43.944Z,3.67
2023-02-15T19:31:18.166Z,3.67
2023-02-15T19:33:51.188Z,3.70
2023-02-15T19:36:26.083Z,3.67
2023-02-15T19:38:58.729Z,4.03
2023-02-15T19:41:34.454Z,4.03
2023-02-15T19:44:09.374Z,4.57
2023-02-15T19:46:42.016Z,3.67
2023-02-15T19:49:14.698Z,3.67
2023-02-15T19:51:48.116Z,4.03
2023-02-15T19:54:31.044Z,3.83
2023-02-15T19:57:03.834Z,3.78
2023-02-15T19:59:36.527Z,4.00
2023-02-15T20:02:18.934Z,3.55
2023-02-15T20:04:51.741Z,3.92
2023-02-15T20:07:35.214Z,4.28
2023-02-15T20:10:20.121Z,3.90
2023-02-15T20:12:54.994Z,4.28
2023-02-15T20:15:34.837Z,4.15
2023-02-15T20:18:08.022Z,3.92
2023-02-15T20:20:46.859Z,4.53
2023-02-15T20:23:46.564Z,4.88
2023-02-15T20:26:21.038Z,4.60
2023-02-15T20:28:53.882Z,4.45
2023-02-15T20:31:26.979Z,4.22
2023-02-15T20:34:02.408Z,4.60
2023-02-15T20:36:47.731Z,4.30
2023-02-15T20:42:19.486Z,4.40
2023-02-15T20:47:38.870Z,4.57
2023-02-15T20:50:11.564Z,4.32
2023-02-15T20:52:53.741Z,4.40
2023-02-15T20:55:32.588Z,4.75
2023-02-15T21:05:41.482Z,4.45
2023-02-15T21:08:38.288Z,4.85
2023-02-15T21:11:28.376Z,4.50
2023-02-15T21:14:01.418Z,4.90
2023-02-15T21:16:38.454Z,4.63
2023-02-15T21:19:33.324Z,4.82
2023-02-15T21:24:51.417Z,4.68
2023-02-15T21:27:24.122Z,4.70
2023-02-15T21:29:56.964Z,5.20
2023-02-15T21:32:29.933Z,5.10
2023-02-15T21:35:17.323Z,5.20
2023-02-15T21:37:53.077Z,4.85
2023-02-15T21:40:32.333Z,4.70
2023-02-15T21:43:32.459Z,5.28
2023-02-15T21:46:36.945Z,5.15
2023-02-15T21:49:10.721Z,4.88
2023-02-15T21:52:02.120Z,5.55
2023-02-15T21:54:41.256Z,5.40
2023-02-15T21:57:16.355Z,5.40
2023-02-15T21:59:51.211Z,5.45
2023-02-15T22:02:32.004Z,5.60
2023-02-15T22:05:20.809Z,5.63
2023-02-15T22:07:57.318Z,5.47
2023-02-15T22:10:33.464Z,5.40
2023-02-15T22:13:06.584Z,5.50
2023-02-15T22:15:39.541Z,5.32
2023-02-15T22:18:25.248Z,5.50
2023-02-15T22:20:59.916Z,5.57
2023-02-15T22:23:32.570Z,5.80
2023-02-15T22:26:26.432Z,5.38
2023-02-15T22:28:59.308Z,5.60
2023-02-15T22:31:32.397Z,5.30
2023-02-15T22:34:05.249Z,5.50
2023-02-15T22:36:39.212Z,5.78
2023-02-15T22:39:15.210Z,5.80
2023-02-15T22:41:51.122Z,5.43
2023-02-15T22:44:50.729Z,5.35
2023-02-15T22:50:40.919Z,5.15
2023-02-15T22:53:13.497Z,5.25
2023-02-15T22:55:47.734Z,5.57
2023-02-15T22:58:27.260Z,5.50
2023-02-15T23:01:02.011Z,5.65
2023-02-15T23:03:35.112Z,5.28
2023-02-15T23:06:14.208Z,5.40
2023-02-15T23:12:00.380Z,5.10
2023-02-15T23:14:36.683Z,5.53
2023-02-15T23:17:15.473Z,5.28
2023-02-15T23:19:48.205Z,5.38
2023-02-15T23:22:20.903Z,5.18
2023-02-15T23:25:23.864Z,5.20
2023-02-15T23:28:11.788Z,5.28
2023-02-15T23:30:48.121Z,4.93
2023-02-15T23:33:54.922Z,5.40
2023-02-15T23:40:12.088Z,4.95
2023-02-15T23:42:44.764Z,5.07
2023-02-15T23:45:23.546Z,5.47
2023-02-15T23:48:37.919Z,5.68
2023-02-15T23:51:22.249Z,5.18
2023-02-15T23:53:58.501Z,5.70
2023-02-15T23:56:31.060Z,5.32
2023-02-15T23:59:05.379Z,5.30
